sensor_id;sensor_type;location;lat;lon;timestamp;pressure;altitude;pressure_sealevel;temperature
71205;BMP180;58935;54.498;18.544;2022-12-07T00:01:33;99684.40;;;2.90
71205;BMP180;58935;54.498;18.544;2022-12-07T00:04:00;99681.60;;;2.94
71205;BMP180;58935;54.498;18.544;2022-12-07T00:06:35;99674.40;;;2.90
71205;BMP180;58935;54.498;18.544;2022-12-07T00:09:01;99671.20;;;3.00
71205;BMP180;58935;54.498;18.544;2022-12-07T00:11:26;99663.40;;;3.00
71205;BMP180;58935;54.498;18.544;2022-12-07T00:13:54;99667.40;;;3.00
71205;BMP180;58935;54.498;18.544;2022-12-07T00:16:23;99668.20;;;3.00
71205;BMP180;58935;54.498;18.544;2022-12-07T00:18:49;99673.00;;;3.00
71205;BMP180;58935;54.498;18.544;2022-12-07T00:21:17;99675.20;;;3.08
71205;BMP180;58935;54.498;18.544;2022-12-07T00:23:44;99675.20;;;3.10
71205;BMP180;58935;54.498;18.544;2022-12-07T00:26:12;99673.80;;;3.10
71205;BMP180;58935;54.498;18.544;2022-12-07T00:28:37;99669.20;;;3.10
71205;BMP180;58935;54.498;18.544;2022-12-07T00:31:06;99665.20;;;3.10
71205;BMP180;58935;54.498;18.544;2022-12-07T00:33:33;99662.40;;;3.10
71205;BMP180;58935;54.498;18.544;2022-12-07T00:36:03;99657.00;;;3.10
71205;BMP180;58935;54.498;18.544;2022-12-07T00:38:33;99661.40;;;3.00
71205;BMP180;58935;54.498;18.544;2022-12-07T00:41:02;99662.20;;;3.00
71205;BMP180;58935;54.498;18.544;2022-12-07T00:43:27;99658.00;;;3.00
71205;BMP180;58935;54.498;18.544;2022-12-07T00:45:53;99663.60;;;2.90
71205;BMP180;58935;54.498;18.544;2022-12-07T00:48:23;99664.00;;;2.90
71205;BMP180;58935;54.498;18.544;2022-12-07T00:50:51;99658.80;;;2.90
71205;BMP180;58935;54.498;18.544;2022-12-07T00:53:19;99655.60;;;2.90
71205;BMP180;58935;54.498;18.544;2022-12-07T00:55:45;99654.60;;;2.90
71205;BMP180;58935;54.498;18.544;2022-12-07T00:58:13;99646.20;;;2.84
71205;BMP180;58935;54.498;18.544;2022-12-07T01:00:40;99648.80;;;2.80
71205;BMP180;58935;54.498;18.544;2022-12-07T01:03:07;99644.40;;;2.80
71205;BMP180;58935;54.498;18.544;2022-12-07T01:05:33;99643.00;;;2.80
71205;BMP180;58935;54.498;18.544;2022-12-07T01:07:59;99642.80;;;2.86
71205;BMP180;58935;54.498;18.544;2022-12-07T01:10:26;99641.20;;;2.90
71205;BMP180;58935;54.498;18.544;2022-12-07T01:12:52;99639.20;;;2.86
71205;BMP180;58935;54.498;18.544;2022-12-07T01:15:17;99639.80;;;2.80
71205;BMP180;58935;54.498;18.544;2022-12-07T01:17:42;99632.40;;;2.80
71205;BMP180;58935;54.498;18.544;2022-12-07T01:20:08;99635.80;;;2.80
71205;BMP180;58935;54.498;18.544;2022-12-07T01:22:37;99629.80;;;2.80
71205;BMP180;58935;54.498;18.544;2022-12-07T01:25:03;99629.60;;;2.80
71205;BMP180;58935;54.498;18.544;2022-12-07T01:27:32;99625.00;;;2.82
71205;BMP180;58935;54.498;18.544;2022-12-07T01:29:58;99619.00;;;2.84
71205;BMP180;58935;54.498;18.544;2022-12-07T01:32:23;99618.40;;;2.86
71205;BMP180;58935;54.498;18.544;2022-12-07T01:34:51;99613.20;;;2.84
71205;BMP180;58935;54.498;18.544;2022-12-07T01:37:16;99610.80;;;2.80
71205;BMP180;58935;54.498;18.544;2022-12-07T01:39:42;99611.20;;;2.80
71205;BMP180;58935;54.498;18.544;2022-12-07T01:42:12;99613.40;;;2.80
71205;BMP180;58935;54.498;18.544;2022-12-07T01:47:11;99609.20;;;2.90
71205;BMP180;58935;54.498;18.544;2022-12-07T01:49:42;99607.20;;;2.88
71205;BMP180;58935;54.498;18.544;2022-12-07T01:52:25;99606.80;;;2.90
71205;BMP180;58935;54.498;18.544;2022-12-07T01:54:53;99601.40;;;2.90
71205;BMP180;58935;54.498;18.544;2022-12-07T01:57:20;99606.00;;;2.90
71205;BMP180;58935;54.498;18.544;2022-12-07T01:59:47;99607.20;;;2.90
71205;BMP180;58935;54.498;18.544;2022-12-07T02:02:22;99599.00;;;2.90
71205;BMP180;58935;54.498;18.544;2022-12-07T02:04:52;99603.00;;;2.90
71205;BMP180;58935;54.498;18.544;2022-12-07T02:07:20;99595.80;;;2.90
71205;BMP180;58935;54.498;18.544;2022-12-07T02:09:45;99593.20;;;2.90
71205;BMP180;58935;54.498;18.544;2022-12-07T02:12:11;99587.00;;;2.90
71205;BMP180;58935;54.498;18.544;2022-12-07T02:14:36;99587.20;;;2.90
71205;BMP180;58935;54.498;18.544;2022-12-07T02:17:10;99586.20;;;2.90
71205;BMP180;58935;54.498;18.544;2022-12-07T02:22:36;99580.00;;;2.90
71205;BMP180;58935;54.498;18.544;2022-12-07T02:25:22;99572.60;;;2.90
71205;BMP180;58935;54.498;18.544;2022-12-07T02:28:04;99574.00;;;2.96
71205;BMP180;58935;54.498;18.544;2022-12-07T02:30:34;99572.20;;;2.98
71205;BMP180;58935;54.498;18.544;2022-12-07T02:33:08;99563.80;;;3.00
71205;BMP180;58935;54.498;18.544;2022-12-07T02:35:42;99563.60;;;3.00
71205;BMP180;58935;54.498;18.544;2022-12-07T02:40:48;99560.20;;;3.00
71205;BMP180;58935;54.498;18.544;2022-12-07T02:43:19;99557.20;;;3.02
71205;BMP180;58935;54.498;18.544;2022-12-07T02:45:50;99552.00;;;3.06
71205;BMP180;58935;54.498;18.544;2022-12-07T02:48:17;99548.00;;;3.10
71205;BMP180;58935;54.498;18.544;2022-12-07T02:50:48;99547.20;;;3.10
71205;BMP180;58935;54.498;18.544;2022-12-07T02:55:48;99543.20;;;3.10
71205;BMP180;58935;54.498;18.544;2022-12-07T02:58:27;99548.40;;;3.20
71205;BMP180;58935;54.498;18.544;2022-12-07T03:01:11;99545.20;;;3.20
71205;BMP180;58935;54.498;18.544;2022-12-07T03:03:40;99531.60;;;3.20
71205;BMP180;58935;54.498;18.544;2022-12-07T03:06:21;99533.80;;;3.20
71205;BMP180;58935;54.498;18.544;2022-12-07T03:08:56;99522.80;;;3.26
71205;BMP180;58935;54.498;18.544;2022-12-07T03:11:30;99524.00;;;3.30
71205;BMP180;58935;54.498;18.544;2022-12-07T03:14:05;99526.00;;;3.30
71205;BMP180;58935;54.498;18.544;2022-12-07T03:16:39;99525.00;;;3.32
71205;BMP180;58935;54.498;18.544;2022-12-07T03:19:09;99522.60;;;3.30
71205;BMP180;58935;54.498;18.544;2022-12-07T03:21:40;99524.40;;;3.30
71205;BMP180;58935;54.498;18.544;2022-12-07T03:24:10;99523.80;;;3.26
71205;BMP180;58935;54.498;18.544;2022-12-07T03:26:41;99523.20;;;3.20
71205;BMP180;58935;54.498;18.544;2022-12-07T03:29:11;99522.00;;;3.20
71205;BMP180;58935;54.498;18.544;2022-12-07T03:31:42;99520.40;;;3.20
71205;BMP180;58935;54.498;18.544;2022-12-07T03:34:15;99517.20;;;3.20
71205;BMP180;58935;54.498;18.544;2022-12-07T03:36:49;99521.20;;;3.20
71205;BMP180;58935;54.498;18.544;2022-12-07T03:41:47;99518.80;;;3.20
71205;BMP180;58935;54.498;18.544;2022-12-07T03:44:13;99514.80;;;3.20
71205;BMP180;58935;54.498;18.544;2022-12-07T03:46:48;99512.40;;;3.20
71205;BMP180;58935;54.498;18.544;2022-12-07T03:51:57;99498.80;;;3.30
71205;BMP180;58935;54.498;18.544;2022-12-07T03:54:31;99496.40;;;3.34
71205;BMP180;58935;54.498;18.544;2022-12-07T03:56:59;99492.20;;;3.40
71205;BMP180;58935;54.498;18.544;2022-12-07T03:59:26;99488.20;;;3.40
71205;BMP180;58935;54.498;18.544;2022-12-07T04:01:55;99489.00;;;3.40
71205;BMP180;58935;54.498;18.544;2022-12-07T04:04:23;99482.60;;;3.48
71205;BMP180;58935;54.498;18.544;2022-12-07T04:06:50;99485.60;;;3.50
71205;BMP180;58935;54.498;18.544;2022-12-07T04:09:16;99482.80;;;3.50
71205;BMP180;58935;54.498;18.544;2022-12-07T04:11:41;99480.40;;;3.50
71205;BMP180;58935;54.498;18.544;2022-12-07T04:14:07;99477.40;;;3.50
71205;BMP180;58935;54.498;18.544;2022-12-07T04:16:35;99475.20;;;3.50
71205;BMP180;58935;54.498;18.544;2022-12-07T04:19:02;99470.80;;;3.50
71205;BMP180;58935;54.498;18.544;2022-12-07T04:21:28;99465.00;;;3.50
71205;BMP180;58935;54.498;18.544;2022-12-07T04:23:53;99465.00;;;3.50
71205;BMP180;58935;54.498;18.544;2022-12-07T04:26:18;99462.40;;;3.50
71205;BMP180;58935;54.498;18.544;2022-12-07T04:28:43;99463.20;;;3.50
71205;BMP180;58935;54.498;18.544;2022-12-07T04:31:09;99458.60;;;3.50
71205;BMP180;58935;54.498;18.544;2022-12-07T04:33:35;99456.60;;;3.44
71205;BMP180;58935;54.498;18.544;2022-12-07T04:36:00;99457.40;;;3.42
71205;BMP180;58935;54.498;18.544;2022-12-07T04:38:27;99446.80;;;3.40
71205;BMP180;58935;54.498;18.544;2022-12-07T04:40:55;99454.00;;;3.40
71205;BMP180;58935;54.498;18.544;2022-12-07T04:43:21;99458.80;;;3.42
71205;BMP180;58935;54.498;18.544;2022-12-07T04:45:48;99459.20;;;3.40
71205;BMP180;58935;54.498;18.544;2022-12-07T04:48:14;99454.80;;;3.42
71205;BMP180;58935;54.498;18.544;2022-12-07T04:50:39;99448.60;;;3.40
71205;BMP180;58935;54.498;18.544;2022-12-07T04:53:05;99449.80;;;3.40
71205;BMP180;58935;54.498;18.544;2022-12-07T04:55:30;99446.80;;;3.40
71205;BMP180;58935;54.498;18.544;2022-12-07T04:57:55;99447.20;;;3.40
71205;BMP180;58935;54.498;18.544;2022-12-07T05:00:23;99440.80;;;3.40
71205;BMP180;58935;54.498;18.544;2022-12-07T05:02:50;99438.20;;;3.46
71205;BMP180;58935;54.498;18.544;2022-12-07T05:05:16;99434.40;;;3.46
71205;BMP180;58935;54.498;18.544;2022-12-07T05:07:43;99428.80;;;3.50
71205;BMP180;58935;54.498;18.544;2022-12-07T05:10:11;99419.80;;;3.42
71205;BMP180;58935;54.498;18.544;2022-12-07T05:12:38;99423.00;;;3.50
71205;BMP180;58935;54.498;18.544;2022-12-07T05:15:09;99421.20;;;3.50
71205;BMP180;58935;54.498;18.544;2022-12-07T05:17:37;99420.20;;;3.50
71205;BMP180;58935;54.498;18.544;2022-12-07T05:20:05;99415.60;;;3.50
71205;BMP180;58935;54.498;18.544;2022-12-07T05:22:31;99415.00;;;3.60
71205;BMP180;58935;54.498;18.544;2022-12-07T05:24:56;99407.20;;;3.60
71205;BMP180;58935;54.498;18.544;2022-12-07T05:27:24;99406.60;;;3.60
71205;BMP180;58935;54.498;18.544;2022-12-07T05:29:52;99405.00;;;3.60
71205;BMP180;58935;54.498;18.544;2022-12-07T05:32:18;99406.20;;;3.60
71205;BMP180;58935;54.498;18.544;2022-12-07T05:34:46;99407.20;;;3.60
71205;BMP180;58935;54.498;18.544;2022-12-07T05:37:11;99401.80;;;3.60
71205;BMP180;58935;54.498;18.544;2022-12-07T05:39:36;99401.40;;;3.60
71205;BMP180;58935;54.498;18.544;2022-12-07T05:42:05;99397.80;;;3.60
71205;BMP180;58935;54.498;18.544;2022-12-07T05:44:34;99390.40;;;3.60
71205;BMP180;58935;54.498;18.544;2022-12-07T05:46:59;99400.60;;;3.60
71205;BMP180;58935;54.498;18.544;2022-12-07T05:49:24;99403.80;;;3.60
71205;BMP180;58935;54.498;18.544;2022-12-07T05:51:50;99394.00;;;3.50
71205;BMP180;58935;54.498;18.544;2022-12-07T05:54:15;99402.20;;;3.50
71205;BMP180;58935;54.498;18.544;2022-12-07T05:56:43;99399.60;;;3.50
71205;BMP180;58935;54.498;18.544;2022-12-07T05:59:08;99398.80;;;3.50
71205;BMP180;58935;54.498;18.544;2022-12-07T06:01:37;99400.80;;;3.46
71205;BMP180;58935;54.498;18.544;2022-12-07T06:04:02;99394.00;;;3.40
71205;BMP180;58935;54.498;18.544;2022-12-07T06:06:27;99387.20;;;3.40
71205;BMP180;58935;54.498;18.544;2022-12-07T06:08:53;99390.80;;;3.40
71205;BMP180;58935;54.498;18.544;2022-12-07T06:11:20;99386.00;;;3.32
71205;BMP180;58935;54.498;18.544;2022-12-07T06:13:49;99387.80;;;3.36
71205;BMP180;58935;54.498;18.544;2022-12-07T06:16:16;99380.00;;;3.34
71205;BMP180;58935;54.498;18.544;2022-12-07T06:18:42;99376.20;;;3.30
71205;BMP180;58935;54.498;18.544;2022-12-07T06:21:10;99387.20;;;3.30
71205;BMP180;58935;54.498;18.544;2022-12-07T06:23:35;99381.80;;;3.30
71205;BMP180;58935;54.498;18.544;2022-12-07T06:26:03;99380.20;;;3.30
71205;BMP180;58935;54.498;18.544;2022-12-07T06:28:28;99383.20;;;3.30
71205;BMP180;58935;54.498;18.544;2022-12-07T06:30:57;99371.80;;;3.30
71205;BMP180;58935;54.498;18.544;2022-12-07T06:33:23;99377.80;;;3.30
71205;BMP180;58935;54.498;18.544;2022-12-07T06:38:16;99371.80;;;3.24
71205;BMP180;58935;54.498;18.544;2022-12-07T06:40:43;99365.20;;;3.20
71205;BMP180;58935;54.498;18.544;2022-12-07T06:43:09;99366.20;;;3.20
71205;BMP180;58935;54.498;18.544;2022-12-07T06:45:34;99360.40;;;3.20
71205;BMP180;58935;54.498;18.544;2022-12-07T06:48:00;99364.00;;;3.20
71205;BMP180;58935;54.498;18.544;2022-12-07T06:50:25;99368.20;;;3.20
71205;BMP180;58935;54.498;18.544;2022-12-07T06:52:53;99370.40;;;3.20
71205;BMP180;58935;54.498;18.544;2022-12-07T06:55:18;99370.20;;;3.20
71205;BMP180;58935;54.498;18.544;2022-12-07T06:57:46;99367.40;;;3.20
71205;BMP180;58935;54.498;18.544;2022-12-07T07:00:14;99360.40;;;3.20
71205;BMP180;58935;54.498;18.544;2022-12-07T07:02:39;99361.20;;;3.20
71205;BMP180;58935;54.498;18.544;2022-12-07T07:05:07;99362.80;;;3.20
71205;BMP180;58935;54.498;18.544;2022-12-07T07:07:34;99364.60;;;3.20
71205;BMP180;58935;54.498;18.544;2022-12-07T07:10:00;99365.00;;;3.20
71205;BMP180;58935;54.498;18.544;2022-12-07T07:12:25;99366.60;;;3.20
71205;BMP180;58935;54.498;18.544;2022-12-07T07:14:50;99361.00;;;3.20
71205;BMP180;58935;54.498;18.544;2022-12-07T07:17:18;99358.40;;;3.20
71205;BMP180;58935;54.498;18.544;2022-12-07T07:19:43;99357.20;;;3.20
71205;BMP180;58935;54.498;18.544;2022-12-07T07:22:10;99352.40;;;3.20
71205;BMP180;58935;54.498;18.544;2022-12-07T07:24:36;99356.80;;;3.18
71205;BMP180;58935;54.498;18.544;2022-12-07T07:27:01;99356.40;;;3.20
71205;BMP180;58935;54.498;18.544;2022-12-07T07:29:26;99354.80;;;3.20
71205;BMP180;58935;54.498;18.544;2022-12-07T07:31:51;99345.20;;;3.20
71205;BMP180;58935;54.498;18.544;2022-12-07T07:34:17;99348.00;;;3.20
71205;BMP180;58935;54.498;18.544;2022-12-07T07:36:42;99347.60;;;3.20
71205;BMP180;58935;54.498;18.544;2022-12-07T07:39:10;99344.40;;;3.20
71205;BMP180;58935;54.498;18.544;2022-12-07T07:41:37;99346.80;;;3.20
71205;BMP180;58935;54.498;18.544;2022-12-07T07:44:07;99345.40;;;3.20
71205;BMP180;58935;54.498;18.544;2022-12-07T07:46:32;99344.20;;;3.20
71205;BMP180;58935;54.498;18.544;2022-12-07T07:49:00;99342.80;;;3.20
71205;BMP180;58935;54.498;18.544;2022-12-07T07:51:28;99342.20;;;3.18
71205;BMP180;58935;54.498;18.544;2022-12-07T07:53:53;99343.80;;;3.20
71205;BMP180;58935;54.498;18.544;2022-12-07T07:56:21;99346.60;;;3.16
71205;BMP180;58935;54.498;18.544;2022-12-07T07:58:47;99348.20;;;3.20
71205;BMP180;58935;54.498;18.544;2022-12-07T08:01:12;99342.60;;;3.16
71205;BMP180;58935;54.498;18.544;2022-12-07T08:03:39;99347.20;;;3.20
71205;BMP180;58935;54.498;18.544;2022-12-07T08:06:06;99346.20;;;3.12
71205;BMP180;58935;54.498;18.544;2022-12-07T08:08:31;99356.60;;;3.10
71205;BMP180;58935;54.498;18.544;2022-12-07T08:10:59;99349.60;;;3.12
71205;BMP180;58935;54.498;18.544;2022-12-07T08:13:26;99354.20;;;3.18
71205;BMP180;58935;54.498;18.544;2022-12-07T08:15:51;99349.20;;;3.20
71205;BMP180;58935;54.498;18.544;2022-12-07T08:18:17;99342.40;;;3.26
71205;BMP180;58935;54.498;18.544;2022-12-07T08:20:42;99336.00;;;3.30
71205;BMP180;58935;54.498;18.544;2022-12-07T08:23:08;99344.20;;;3.30
71205;BMP180;58935;54.498;18.544;2022-12-07T08:25:34;99330.00;;;3.30
71205;BMP180;58935;54.498;18.544;2022-12-07T08:27:59;99340.80;;;3.30
71205;BMP180;58935;54.498;18.544;2022-12-07T08:30:28;99332.80;;;3.30
71205;BMP180;58935;54.498;18.544;2022-12-07T08:32:55;99331.80;;;3.30
71205;BMP180;58935;54.498;18.544;2022-12-07T08:35:21;99332.60;;;3.30
71205;BMP180;58935;54.498;18.544;2022-12-07T08:37:46;99336.80;;;3.30
71205;BMP180;58935;54.498;18.544;2022-12-07T08:40:15;99327.20;;;3.30
71205;BMP180;58935;54.498;18.544;2022-12-07T08:42:42;99327.00;;;3.30
71205;BMP180;58935;54.498;18.544;2022-12-07T08:45:10;99331.20;;;3.30
71205;BMP180;58935;54.498;18.544;2022-12-07T08:47:37;99332.80;;;3.30
71205;BMP180;58935;54.498;18.544;2022-12-07T08:50:06;99334.20;;;3.30
71205;BMP180;58935;54.498;18.544;2022-12-07T08:52:32;99331.80;;;3.30
71205;BMP180;58935;54.498;18.544;2022-12-07T08:55:00;99326.80;;;3.30
71205;BMP180;58935;54.498;18.544;2022-12-07T08:57:27;99323.00;;;3.30
71205;BMP180;58935;54.498;18.544;2022-12-07T08:59:53;99325.60;;;3.30
71205;BMP180;58935;54.498;18.544;2022-12-07T09:02:21;99323.60;;;3.30
71205;BMP180;58935;54.498;18.544;2022-12-07T09:04:48;99318.60;;;3.30
71205;BMP180;58935;54.498;18.544;2022-12-07T09:07:14;99319.80;;;3.30
71205;BMP180;58935;54.498;18.544;2022-12-07T09:09:39;99318.20;;;3.30
71205;BMP180;58935;54.498;18.544;2022-12-07T09:12:04;99318.20;;;3.30
71205;BMP180;58935;54.498;18.544;2022-12-07T09:14:30;99310.00;;;3.30
71205;BMP180;58935;54.498;18.544;2022-12-07T09:17:07;99302.00;;;3.30
71205;BMP180;58935;54.498;18.544;2022-12-07T09:19:33;99310.20;;;3.24
71205;BMP180;58935;54.498;18.544;2022-12-07T09:22:00;99285.60;;;3.20
71205;BMP180;58935;54.498;18.544;2022-12-07T09:24:28;99306.20;;;3.20
71205;BMP180;58935;54.498;18.544;2022-12-07T09:26:53;99294.40;;;3.20
71205;BMP180;58935;54.498;18.544;2022-12-07T09:29:21;99294.00;;;3.20
71205;BMP180;58935;54.498;18.544;2022-12-07T09:31:46;99303.40;;;3.20
71205;BMP180;58935;54.498;18.544;2022-12-07T09:34:11;99295.60;;;3.20
71205;BMP180;58935;54.498;18.544;2022-12-07T09:36:37;99297.00;;;3.20
71205;BMP180;58935;54.498;18.544;2022-12-07T09:39:02;99297.60;;;3.20
71205;BMP180;58935;54.498;18.544;2022-12-07T09:41:30;99299.60;;;3.20
71205;BMP180;58935;54.498;18.544;2022-12-07T09:46:36;99288.40;;;3.20
71205;BMP180;58935;54.498;18.544;2022-12-07T09:49:04;99298.60;;;3.20
71205;BMP180;58935;54.498;18.544;2022-12-07T09:51:29;99300.60;;;3.20
71205;BMP180;58935;54.498;18.544;2022-12-07T09:53:57;99295.60;;;3.20
71205;BMP180;58935;54.498;18.544;2022-12-07T09:56:23;99290.80;;;3.20
71205;BMP180;58935;54.498;18.544;2022-12-07T09:58:50;99295.40;;;3.22
71205;BMP180;58935;54.498;18.544;2022-12-07T10:01:19;99296.80;;;3.20
71205;BMP180;58935;54.498;18.544;2022-12-07T10:03:51;99295.40;;;3.28
71205;BMP180;58935;54.498;18.544;2022-12-07T10:06:17;99292.00;;;3.30
71205;BMP180;58935;54.498;18.544;2022-12-07T10:08:42;99281.00;;;3.28
71205;BMP180;58935;54.498;18.544;2022-12-07T10:11:09;99285.20;;;3.28
71205;BMP180;58935;54.498;18.544;2022-12-07T10:13:39;99295.00;;;3.30
71205;BMP180;58935;54.498;18.544;2022-12-07T10:16:05;99294.00;;;3.30
71205;BMP180;58935;54.498;18.544;2022-12-07T10:18:35;99286.00;;;3.30
71205;BMP180;58935;54.498;18.544;2022-12-07T10:23:34;99278.60;;;3.28
71205;BMP180;58935;54.498;18.544;2022-12-07T10:26:19;99280.20;;;3.22
71205;BMP180;58935;54.498;18.544;2022-12-07T10:28:46;99263.80;;;3.22
71205;BMP180;58935;54.498;18.544;2022-12-07T10:31:15;99277.20;;;3.20
71205;BMP180;58935;54.498;18.544;2022-12-07T10:33:48;99270.60;;;3.20
71205;BMP180;58935;54.498;18.544;2022-12-07T10:36:22;99256.20;;;3.20
71205;BMP180;58935;54.498;18.544;2022-12-07T10:38:51;99271.20;;;3.20
71205;BMP180;58935;54.498;18.544;2022-12-07T10:41:17;99267.60;;;3.20
71205;BMP180;58935;54.498;18.544;2022-12-07T10:43:50;99260.00;;;3.20
71205;BMP180;58935;54.498;18.544;2022-12-07T10:46:22;99260.80;;;3.20
71205;BMP180;58935;54.498;18.544;2022-12-07T10:49:02;99261.20;;;3.20
71205;BMP180;58935;54.498;18.544;2022-12-07T10:54:13;99261.20;;;3.20
71205;BMP180;58935;54.498;18.544;2022-12-07T10:56:50;99255.40;;;3.24
71205;BMP180;58935;54.498;18.544;2022-12-07T10:59:42;99256.60;;;3.20
71205;BMP180;58935;54.498;18.544;2022-12-07T11:07:36;99245.60;;;3.10
71205;BMP180;58935;54.498;18.544;2022-12-07T11:10:09;99241.00;;;3.12
71205;BMP180;58935;54.498;18.544;2022-12-07T11:15:18;99246.20;;;3.20
71205;BMP180;58935;54.498;18.544;2022-12-07T11:18:01;99246.20;;;3.22
71205;BMP180;58935;54.498;18.544;2022-12-07T11:20:39;99234.60;;;3.30
71205;BMP180;58935;54.498;18.544;2022-12-07T11:23:18;99239.40;;;3.30
71205;BMP180;58935;54.498;18.544;2022-12-07T11:26:01;99231.40;;;3.32
71205;BMP180;58935;54.498;18.544;2022-12-07T11:28:57;99229.20;;;3.30
71205;BMP180;58935;54.498;18.544;2022-12-07T11:34:09;99207.60;;;3.38
71205;BMP180;58935;54.498;18.544;2022-12-07T11:36:44;99209.20;;;3.40
71205;BMP180;58935;54.498;18.544;2022-12-07T11:39:33;99216.00;;;3.40
71205;BMP180;58935;54.498;18.544;2022-12-07T11:42:06;99207.80;;;3.46
71205;BMP180;58935;54.498;18.544;2022-12-07T11:44:48;99207.40;;;3.50
71205;BMP180;58935;54.498;18.544;2022-12-07T11:47:23;99202.60;;;3.50
71205;BMP180;58935;54.498;18.544;2022-12-07T11:49:55;99202.80;;;3.50
71205;BMP180;58935;54.498;18.544;2022-12-07T11:52:32;99195.60;;;3.50
71205;BMP180;58935;54.498;18.544;2022-12-07T11:55:01;99201.20;;;3.50
71205;BMP180;58935;54.498;18.544;2022-12-07T11:57:39;99201.60;;;3.40
71205;BMP180;58935;54.498;18.544;2022-12-07T12:00:13;99201.00;;;3.40
71205;BMP180;58935;54.498;18.544;2022-12-07T12:02:48;99195.80;;;3.40
71205;BMP180;58935;54.498;18.544;2022-12-07T12:05:21;99196.60;;;3.40
71205;BMP180;58935;54.498;18.544;2022-12-07T12:07:58;99199.40;;;3.30
71205;BMP180;58935;54.498;18.544;2022-12-07T12:10:34;99202.40;;;3.30
71205;BMP180;58935;54.498;18.544;2022-12-07T12:13:10;99196.40;;;3.40
71205;BMP180;58935;54.498;18.544;2022-12-07T12:21:21;99183.00;;;3.20
71205;BMP180;58935;54.498;18.544;2022-12-07T12:26:23;99187.60;;;3.20
71205;BMP180;58935;54.498;18.544;2022-12-07T12:28:56;99183.60;;;3.20
71205;BMP180;58935;54.498;18.544;2022-12-07T12:31:31;99178.40;;;3.20
71205;BMP180;58935;54.498;18.544;2022-12-07T12:33:59;99182.00;;;3.10
71205;BMP180;58935;54.498;18.544;2022-12-07T12:36:45;99183.00;;;3.10
71205;BMP180;58935;54.498;18.544;2022-12-07T12:39:14;99184.80;;;3.10
71205;BMP180;58935;54.498;18.544;2022-12-07T12:41:56;99173.20;;;3.10
71205;BMP180;58935;54.498;18.544;2022-12-07T12:44:42;99172.60;;;3.10
71205;BMP180;58935;54.498;18.544;2022-12-07T12:50:16;99168.60;;;3.02
71205;BMP180;58935;54.498;18.544;2022-12-07T12:52:49;99161.80;;;3.04
71205;BMP180;58935;54.498;18.544;2022-12-07T12:55:17;99159.60;;;3.00
71205;BMP180;58935;54.498;18.544;2022-12-07T12:57:47;99154.60;;;3.00
71205;BMP180;58935;54.498;18.544;2022-12-07T13:00:22;99160.80;;;3.02
71205;BMP180;58935;54.498;18.544;2022-12-07T13:02:52;99153.40;;;3.08
71205;BMP180;58935;54.498;18.544;2022-12-07T13:05:22;99151.40;;;3.04
71205;BMP180;58935;54.498;18.544;2022-12-07T13:07:53;99155.40;;;3.02
71205;BMP180;58935;54.498;18.544;2022-12-07T13:10:39;99148.20;;;3.00
71205;BMP180;58935;54.498;18.544;2022-12-07T13:13:28;99147.80;;;3.00
71205;BMP180;58935;54.498;18.544;2022-12-07T13:18:57;99136.00;;;3.00
71205;BMP180;58935;54.498;18.544;2022-12-07T13:21:41;99143.20;;;3.00
71205;BMP180;58935;54.498;18.544;2022-12-07T13:24:12;99140.40;;;3.00
71205;BMP180;58935;54.498;18.544;2022-12-07T13:26:41;99135.80;;;3.00
71205;BMP180;58935;54.498;18.544;2022-12-07T13:29:14;99132.00;;;3.00
71205;BMP180;58935;54.498;18.544;2022-12-07T13:31:43;99128.40;;;3.00
71205;BMP180;58935;54.498;18.544;2022-12-07T13:36:44;99128.80;;;2.90
71205;BMP180;58935;54.498;18.544;2022-12-07T13:39:18;99134.60;;;2.90
71205;BMP180;58935;54.498;18.544;2022-12-07T13:41:48;99129.40;;;2.82
71205;BMP180;58935;54.498;18.544;2022-12-07T13:44:15;99125.60;;;2.80
71205;BMP180;58935;54.498;18.544;2022-12-07T13:51:46;99116.00;;;2.62
71205;BMP180;58935;54.498;18.544;2022-12-07T13:54:13;99122.60;;;2.60
71205;BMP180;58935;54.498;18.544;2022-12-07T13:56:38;99118.60;;;2.60
71205;BMP180;58935;54.498;18.544;2022-12-07T13:59:13;99108.80;;;2.54
71205;BMP180;58935;54.498;18.544;2022-12-07T14:01:38;99112.20;;;2.50
71205;BMP180;58935;54.498;18.544;2022-12-07T14:06:35;99105.60;;;2.50
71205;BMP180;58935;54.498;18.544;2022-12-07T14:09:06;99101.00;;;2.42
71205;BMP180;58935;54.498;18.544;2022-12-07T14:11:32;99111.60;;;2.40
71205;BMP180;58935;54.498;18.544;2022-12-07T14:13:59;99110.00;;;2.40
71205;BMP180;58935;54.498;18.544;2022-12-07T14:16:32;99105.00;;;2.40
71205;BMP180;58935;54.498;18.544;2022-12-07T14:19:03;99099.00;;;2.34
71205;BMP180;58935;54.498;18.544;2022-12-07T14:21:31;99090.20;;;2.30
71205;BMP180;58935;54.498;18.544;2022-12-07T14:26:27;99099.00;;;2.30
71205;BMP180;58935;54.498;18.544;2022-12-07T14:31:41;99088.20;;;2.20
71205;BMP180;58935;54.498;18.544;2022-12-07T14:34:11;99095.00;;;2.20
71205;BMP180;58935;54.498;18.544;2022-12-07T14:36:39;99090.20;;;2.20
71205;BMP180;58935;54.498;18.544;2022-12-07T14:39:09;99092.20;;;2.20
71205;BMP180;58935;54.498;18.544;2022-12-07T14:41:34;99088.60;;;2.20
71205;BMP180;58935;54.498;18.544;2022-12-07T14:44:11;99095.80;;;2.20
71205;BMP180;58935;54.498;18.544;2022-12-07T14:46:36;99086.60;;;2.30
71205;BMP180;58935;54.498;18.544;2022-12-07T14:49:04;99087.80;;;2.30
71205;BMP180;58935;54.498;18.544;2022-12-07T14:51:30;99065.40;;;2.30
71205;BMP180;58935;54.498;18.544;2022-12-07T14:53:55;99078.60;;;2.24
71205;BMP180;58935;54.498;18.544;2022-12-07T14:56:20;99085.40;;;2.20
71205;BMP180;58935;54.498;18.544;2022-12-07T14:58:46;99082.60;;;2.20
71205;BMP180;58935;54.498;18.544;2022-12-07T15:01:13;99067.60;;;2.20
71205;BMP180;58935;54.498;18.544;2022-12-07T15:03:38;99076.60;;;2.18
71205;BMP180;58935;54.498;18.544;2022-12-07T15:06:05;99077.80;;;2.10
71205;BMP180;58935;54.498;18.544;2022-12-07T15:08:30;99078.20;;;2.10
71205;BMP180;58935;54.498;18.544;2022-12-07T15:10:55;99064.00;;;2.10
71205;BMP180;58935;54.498;18.544;2022-12-07T15:13:21;99065.80;;;2.08
71205;BMP180;58935;54.498;18.544;2022-12-07T15:15:51;99065.60;;;2.00
71205;BMP180;58935;54.498;18.544;2022-12-07T15:18:20;99055.40;;;2.00
71205;BMP180;58935;54.498;18.544;2022-12-07T15:20:49;99059.80;;;2.00
71205;BMP180;58935;54.498;18.544;2022-12-07T15:23:15;99073.40;;;2.00
71205;BMP180;58935;54.498;18.544;2022-12-07T15:25:41;99065.60;;;1.94